createdAt,value
2023-05-10T00:00:24.901Z,76.57
2023-05-10T00:03:28.077Z,76.73
2023-05-10T00:06:31.367Z,77.35
2023-05-10T00:09:34.566Z,77.37
2023-05-10T00:12:37.777Z,77.76
2023-05-10T00:15:41.034Z,77.93
2023-05-10T00:18:43.845Z,78.05
2023-05-10T00:21:47.644Z,77.87
2023-05-10T00:24:50.143Z,77.66
2023-05-10T00:27:56.137Z,77.98
2023-05-10T00:30:58.761Z,78.52
2023-05-10T00:34:02.782Z,78.24
2023-05-10T00:37:05.746Z,79.18
2023-05-10T00:40:09.521Z,78.40
2023-05-10T00:43:12.254Z,78.91
2023-05-10T00:46:16.884Z,79.23
2023-05-10T00:49:30.190Z,79.68
2023-05-10T00:52:33.802Z,79.30
2023-05-10T00:55:37.092Z,79.20
2023-05-10T00:58:41.061Z,78.92
2023-05-10T01:01:47.254Z,78.79
2023-05-10T01:04:50.628Z,79.46
2023-05-10T01:07:53.125Z,79.06
2023-05-10T01:10:56.415Z,79.23
2023-05-10T01:13:59.838Z,79.39
2023-05-10T01:17:05.504Z,79.23
2023-05-10T01:20:11.606Z,79.94
2023-05-10T01:23:36.911Z,79.07
2023-05-10T01:26:58.261Z,80.22
2023-05-10T01:30:15.300Z,79.95
2023-05-10T01:33:31.058Z,80.10
2023-05-10T01:36:56.160Z,79.23
2023-05-10T01:40:06.624Z,80.11
2023-05-10T01:43:18.718Z,80.03
2023-05-10T01:46:38.451Z,81.17
2023-05-10T01:49:51.760Z,80.95
2023-05-10T01:52:59.308Z,80.60
2023-05-10T01:56:03.840Z,80.26
2023-05-10T01:59:12.286Z,80.02
2023-05-10T02:02:17.832Z,79.60
2023-05-10T02:05:21.463Z,80.30
2023-05-10T02:08:25.950Z,79.31
2023-05-10T02:11:35.654Z,79.16
2023-05-10T02:14:40.176Z,79.54
2023-05-10T02:17:44.456Z,80.05
2023-05-10T02:20:56.641Z,79.85
2023-05-10T02:24:01.848Z,80.08
2023-05-10T02:27:07.270Z,80.24
2023-05-10T02:30:12.062Z,80.33
2023-05-10T02:33:15.445Z,80.70
2023-05-10T02:36:22.105Z,80.62
2023-05-10T02:39:27.197Z,80.30
2023-05-10T02:42:33.715Z,80.00
2023-05-10T02:45:40.425Z,79.84
2023-05-10T02:48:44.569Z,80.37
2023-05-10T02:51:52.016Z,80.24
2023-05-10T02:55:04.114Z,80.41
2023-05-10T02:58:08.881Z,81.02
2023-05-10T03:01:11.999Z,80.46
2023-05-10T03:04:14.589Z,80.45
2023-05-10T03:07:20.541Z,80.59
2023-05-10T03:10:30.631Z,80.67
2023-05-10T03:13:50.153Z,81.18
2023-05-10T03:17:17.597Z,80.79
2023-05-10T03:20:30.303Z,80.63
2023-05-10T03:23:42.193Z,80.94
2023-05-10T03:26:46.680Z,80.96
2023-05-10T03:29:52.372Z,81.57
2023-05-10T03:32:55.562Z,81.71
2023-05-10T03:36:00.235Z,81.12
2023-05-10T03:39:03.847Z,81.08
2023-05-10T03:42:07.120Z,81.13
2023-05-10T03:45:10.733Z,81.22
2023-05-10T03:48:14.793Z,81.32
2023-05-10T03:51:19.317Z,80.57
2023-05-10T03:54:24.201Z,80.94
2023-05-10T03:57:28.498Z,81.04
2023-05-10T04:00:32.040Z,81.32
2023-05-10T04:03:41.592Z,80.90
2023-05-10T04:06:45.082Z,81.00
2023-05-10T04:09:48.546Z,81.04
2023-05-10T04:12:54.871Z,81.07
2023-05-10T04:15:58.906Z,81.18
2023-05-10T04:19:06.556Z,80.66
2023-05-10T04:22:10.437Z,80.96
2023-05-10T04:25:13.977Z,80.89
2023-05-10T04:28:16.908Z,80.84
2023-05-10T04:31:20.648Z,80.08
2023-05-10T04:34:27.523Z,79.00
2023-05-10T04:37:34.896Z,78.03
2023-05-10T04:40:38.992Z,77.51
2023-05-10T04:43:42.495Z,77.00
2023-05-10T04:46:46.808Z,75.89
2023-05-10T04:49:51.080Z,75.66
2023-05-10T04:53:01.678Z,74.97
2023-05-10T04:56:06.682Z,75.02
2023-05-10T04:59:09.944Z,75.06
2023-05-10T05:02:15.064Z,75.08
2023-05-10T05:05:19.474Z,74.72
2023-05-10T05:08:29.888Z,73.89
2023-05-10T05:11:34.214Z,73.17
2023-05-10T05:14:37.645Z,72.31
2023-05-10T05:17:46.968Z,71.52
2023-05-10T05:20:52.223Z,70.88
2023-05-10T05:23:56.398Z,69.97
2023-05-10T05:26:59.101Z,70.70
2023-05-10T05:30:03.324Z,70.68
2023-05-10T05:33:11.575Z,70.77
2023-05-10T05:36:14.931Z,70.01
2023-05-10T05:39:17.793Z,67.83
2023-05-10T05:42:23.077Z,65.83
2023-05-10T05:45:30.721Z,63.86
2023-05-10T05:48:34.084Z,62.42
2023-05-10T05:51:38.584Z,61.78
2023-05-10T05:54:42.284Z,60.21
2023-05-10T05:57:48.507Z,59.40
2023-05-10T06:00:56.672Z,57.13
2023-05-10T06:04:08.547Z,56.87
2023-05-10T06:07:11.517Z,54.85
2023-05-10T06:10:15.930Z,55.96
2023-05-10T06:13:24.040Z,56.49
2023-05-10T06:16:27.895Z,54.85
2023-05-10T06:19:35.945Z,55.37
2023-05-10T06:22:39.572Z,56.69
2023-05-10T06:25:47.467Z,57.19
2023-05-10T06:28:52.674Z,57.63
2023-05-10T06:31:55.757Z,57.73
2023-05-10T06:34:58.899Z,56.78
2023-05-10T06:38:02.711Z,55.91
2023-05-10T06:41:08.133Z,56.08
2023-05-10T06:44:17.443Z,55.58
2023-05-10T06:47:23.089Z,54.31
2023-05-10T06:50:32.074Z,55.92
2023-05-10T06:53:38.438Z,56.01
2023-05-10T06:56:41.347Z,56.42
2023-05-10T06:59:45.802Z,55.26
2023-05-10T07:02:50.236Z,55.41
2023-05-10T07:05:53.483Z,56.27
2023-05-10T07:08:58.498Z,57.30
2023-05-10T07:12:02.968Z,55.68
2023-05-10T07:15:09.699Z,55.63
2023-05-10T07:18:13.712Z,55.97
2023-05-10T07:21:16.878Z,56.23
2023-05-10T07:24:24.558Z,54.79
2023-05-10T07:27:37.475Z,54.93
2023-05-10T07:30:46.775Z,52.24
2023-05-10T07:33:51.682Z,51.49
2023-05-10T07:36:55.835Z,52.24
2023-05-10T07:40:00.449Z,50.41
2023-05-10T07:43:04.587Z,51.49
2023-05-10T07:46:11.277Z,50.96
2023-05-10T07:49:17.665Z,52.32
2023-05-10T07:52:22.427Z,53.41
2023-05-10T07:55:36.367Z,51.80
2023-05-10T07:58:42.924Z,51.67
2023-05-10T08:01:47.657Z,51.76
2023-05-10T08:04:51.099Z,54.22
2023-05-10T08:07:56.475Z,52.80
2023-05-10T08:11:01.039Z,52.96
2023-05-10T08:14:04.655Z,52.14
2023-05-10T08:17:07.472Z,51.91
2023-05-10T08:20:13.967Z,50.36
2023-05-10T08:23:23.547Z,49.09
2023-05-10T08:26:26.947Z,50.50
2023-05-10T08:29:38.618Z,51.75
2023-05-10T08:32:53.560Z,51.83
2023-05-10T08:35:57.603Z,49.39
2023-05-10T08:39:04.026Z,48.46
2023-05-10T08:42:09.714Z,48.23
2023-05-10T08:45:13.390Z,47.43
2023-05-10T08:48:18.140Z,50.31
2023-05-10T08:51:28.180Z,52.40
2023-05-10T08:54:33.442Z,49.00
2023-05-10T08:57:37.676Z,51.20
2023-05-10T09:00:41.921Z,52.17
2023-05-10T09:03:47.515Z,52.36
2023-05-10T09:06:53.635Z,49.43
2023-05-10T09:09:57.124Z,49.59
2023-05-10T09:13:02.447Z,48.61
2023-05-10T09:16:17.448Z,48.01
2023-05-10T09:19:36.908Z,47.18
2023-05-10T09:22:47.416Z,48.60
2023-05-10T09:26:05.588Z,48.13
2023-05-10T09:29:09.576Z,49.88
2023-05-10T09:32:13.795Z,49.14
2023-05-10T09:35:22.436Z,48.89
2023-05-10T09:38:27.374Z,48.21
2023-05-10T09:41:30.997Z,48.43
2023-05-10T09:44:35.305Z,47.04
2023-05-10T09:47:38.840Z,46.40
2023-05-10T09:50:43.016Z,47.23
2023-05-10T09:53:47.573Z,44.69
2023-05-10T09:56:52.720Z,43.74
2023-05-10T10:00:01.775Z,45.09
2023-05-10T10:03:09.608Z,46.06
2023-05-10T10:06:26.307Z,46.08
2023-05-10T10:09:35.587Z,44.52
2023-05-10T10:12:39.626Z,45.00
2023-05-10T10:15:44.595Z,43.11
2023-05-10T10:18:48.674Z,41.75
2023-05-10T10:21:52.697Z,42.85
2023-05-10T10:24:58.874Z,42.17
2023-05-10T10:28:16.569Z,42.49
2023-05-10T10:31:40.168Z,43.08
2023-05-10T10:34:45.400Z,42.94
2023-05-10T10:37:52.347Z,43.73
2023-05-10T10:41:27.759Z,45.48
2023-05-10T10:44:34.859Z,44.71
2023-05-10T10:47:48.804Z,45.29
2023-05-10T10:50:59.603Z,44.81
2023-05-10T10:54:11.612Z,43.08
2023-05-10T10:57:19.933Z,44.49
2023-05-10T11:00:41.982Z,43.83
2023-05-10T11:04:00.300Z,42.97
2023-05-10T11:07:18.573Z,44.08
2023-05-10T11:10:27.456Z,44.45
2023-05-10T11:13:36.001Z,45.20
2023-05-10T11:16:44.375Z,44.22
2023-05-10T11:20:15.548Z,40.46
2023-05-10T11:23:20.368Z,39.75
2023-05-10T11:26:27.267Z,41.74
2023-05-10T11:29:34.512Z,41.80
2023-05-10T11:32:40.540Z,40.58
2023-05-10T11:35:46.680Z,39.19
2023-05-10T11:38:50.058Z,39.57
2023-05-10T11:41:54.179Z,40.96
2023-05-10T11:44:58.979Z,42.12
2023-05-10T11:48:08.364Z,42.37
2023-05-10T11:51:22.704Z,41.78
2023-05-10T11:54:41.405Z,42.11
2023-05-10T11:57:47.097Z,40.06
2023-05-10T12:00:52.225Z,41.05
2023-05-10T12:04:00.773Z,42.50
2023-05-10T12:07:10.940Z,42.80
2023-05-10T12:10:23.802Z,42.87
2023-05-10T12:13:27.692Z,42.23
2023-05-10T12:16:34.711Z,42.25
2023-05-10T12:19:42.554Z,42.44
2023-05-10T12:23:00.508Z,42.00
2023-05-10T12:26:05.396Z,42.25
2023-05-10T12:29:17.412Z,40.52
2023-05-10T12:32:23.522Z,40.52
2023-05-10T12:35:39.038Z,40.52
2023-05-10T12:38:49.766Z,41.03
2023-05-10T12:41:53.800Z,40.04
2023-05-10T12:45:00.839Z,41.12
2023-05-10T12:48:07.681Z,40.52
2023-05-10T12:51:17.729Z,39.45
2023-05-10T12:54:29.042Z,39.85
2023-05-10T12:57:36.817Z,39.87
2023-05-10T13:00:48.335Z,39.74
2023-05-10T13:03:55.802Z,38.60
2023-05-10T13:07:00.139Z,38.60
2023-05-10T13:10:05.694Z,37.83
2023-05-10T13:13:17.504Z,38.92
2023-05-10T13:16:20.482Z,38.08
2023-05-10T13:19:33.711Z,38.96
2023-05-10T13:22:49.184Z,39.30
2023-05-10T13:25:53.928Z,39.72
2023-05-10T13:28:57.969Z,39.07
2023-05-10T13:32:04.541Z,39.18
2023-05-10T13:35:08.950Z,39.37
2023-05-10T13:38:15.691Z,39.60
2023-05-10T13:41:21.715Z,39.46
2023-05-10T13:44:27.415Z,38.73
2023-05-10T13:47:33.572Z,38.96
2023-05-10T13:50:43.419Z,38.24
2023-05-10T13:53:48.240Z,37.66
2023-05-10T13:56:54.572Z,38.36
2023-05-10T14:00:00.713Z,38.51
2023-05-10T14:03:12.426Z,38.66
2023-05-10T14:06:16.752Z,39.19
2023-05-10T14:09:29.750Z,37.63
2023-05-10T14:12:39.971Z,37.27
2023-05-10T14:15:52.548Z,34.83
2023-05-10T14:19:04.203Z,35.38
2023-05-10T14:22:19.300Z,36.53
2023-05-10T14:25:46.407Z,36.50
2023-05-10T14:29:09.924Z,36.47
2023-05-10T14:32:17.651Z,36.92
2023-05-10T14:35:25.741Z,37.17
2023-05-10T14:38:32.618Z,36.77
2023-05-10T14:41:40.224Z,36.32
2023-05-10T14:44:44.781Z,36.21
2023-05-10T14:47:51.503Z,35.09
2023-05-10T14:51:06.486Z,35.71
2023-05-10T14:54:12.516Z,35.69
2023-05-10T14:57:16.555Z,34.85
2023-05-10T15:00:32.519Z,34.25
2023-05-10T15:03:43.612Z,35.51
2023-05-10T15:07:00.816Z,35.50
2023-05-10T15:10:08.499Z,35.95
2023-05-10T15:13:20.125Z,35.89
2023-05-10T15:16:24.652Z,37.20
2023-05-10T15:19:30.470Z,37.85
2023-05-10T15:22:45.706Z,38.21
2023-05-10T15:25:56.894Z,38.20
2023-05-10T15:29:01.532Z,38.33
2023-05-10T15:32:05.527Z,38.43
2023-05-10T15:35:11.273Z,38.91
2023-05-10T15:38:19.464Z,39.10
2023-05-10T15:41:31.321Z,39.00
2023-05-10T15:44:40.532Z,38.64
2023-05-10T15:47:45.739Z,38.33
2023-05-10T15:50:59.514Z,38.30
2023-05-10T15:54:13.486Z,38.49
2023-05-10T15:57:17.017Z,39.44
2023-05-10T16:00:28.028Z,39.35
2023-05-10T16:03:31.871Z,39.07
2023-05-10T16:06:38.676Z,38.89
2023-05-10T16:09:51.747Z,38.26
2023-05-10T16:12:56.386Z,38.55
2023-05-10T16:16:05.709Z,38.00
2023-05-10T16:19:16.245Z,39.03
2023-05-10T16:22:29.499Z,40.55
2023-05-10T16:25:41.530Z,39.86
2023-05-10T16:28:50.581Z,40.44
2023-05-10T16:32:08.429Z,40.47
2023-05-10T16:35:27.750Z,40.47
2023-05-10T16:38:35.536Z,41.52
2023-05-10T16:41:53.867Z,41.01
2023-05-10T16:44:57.971Z,41.05
2023-05-10T16:48:08.423Z,41.32
2023-05-10T16:51:20.467Z,41.21
2023-05-10T16:54:31.535Z,41.06
2023-05-10T16:57:42.948Z,41.13
2023-05-10T17:00:53.099Z,41.45
2023-05-10T17:03:57.705Z,41.81
2023-05-10T17:07:07.132Z,42.15
2023-05-10T17:10:15.557Z,41.82
2023-05-10T17:13:22.545Z,41.93
2023-05-10T17:16:38.549Z,42.10
2023-05-10T17:19:46.536Z,42.40
2023-05-10T17:23:09.422Z,42.83
2023-05-10T17:26:24.486Z,43.43
2023-05-10T17:29:43.433Z,44.12
2023-05-10T17:32:50.218Z,44.20
2023-05-10T17:36:01.533Z,44.33
2023-05-10T17:39:20.696Z,44.92
2023-05-10T17:42:27.362Z,45.70
2023-05-10T17:45:31.544Z,45.01
2023-05-10T17:48:37.152Z,45.50
2023-05-10T17:51:53.605Z,45.34
2023-05-10T17:54:56.916Z,45.58
2023-05-10T17:58:01.134Z,46.10
2023-05-10T18:01:09.772Z,46.22
2023-05-10T18:04:23.163Z,46.96
2023-05-10T18:07:27.218Z,47.10
2023-05-10T18:10:41.230Z,47.50
2023-05-10T18:13:56.486Z,47.93
2023-05-10T18:17:02.154Z,48.30
2023-05-10T18:20:06.266Z,48.41
2023-05-10T18:23:14.546Z,48.92
2023-05-10T18:26:29.585Z,49.05
2023-05-10T18:29:38.556Z,49.15
2023-05-10T18:32:41.847Z,49.81
2023-05-10T18:35:52.561Z,50.37
2023-05-10T18:39:15.541Z,50.27
2023-05-10T18:42:21.501Z,51.19
2023-05-10T18:45:29.873Z,51.11
2023-05-10T18:48:37.284Z,51.16
2023-05-10T18:51:42.027Z,51.94
2023-05-10T18:54:54.372Z,51.77
2023-05-10T18:58:09.550Z,52.00
2023-05-10T19:01:21.618Z,52.40
2023-05-10T19:04:38.805Z,53.14
2023-05-10T19:07:47.518Z,53.15
2023-05-10T19:10:56.537Z,53.85
2023-05-10T19:14:15.507Z,53.85
2023-05-10T19:17:25.521Z,54.06
2023-05-10T19:20:38.176Z,54.74
2023-05-10T19:23:43.323Z,54.63
2023-05-10T19:26:53.778Z,54.46
2023-05-10T19:30:01.809Z,54.67
2023-05-10T19:33:17.734Z,54.72
2023-05-10T19:36:26.724Z,54.47
2023-05-10T19:39:34.486Z,54.55
2023-05-10T19:42:46.714Z,55.14
2023-05-10T19:45:49.836Z,54.91
2023-05-10T19:48:58.210Z,54.83
2023-05-10T19:52:13.586Z,55.00
2023-05-10T19:55:30.480Z,54.90
2023-05-10T19:58:34.508Z,54.73
2023-05-10T20:01:47.509Z,55.05
2023-05-10T20:04:53.773Z,54.83
2023-05-10T20:07:56.523Z,54.97
2023-05-10T20:11:04.537Z,54.90
2023-05-10T20:14:12.586Z,54.80
2023-05-10T20:17:16.851Z,55.08
2023-05-10T20:20:27.188Z,55.12
2023-05-10T20:23:34.972Z,54.99
2023-05-10T20:26:42.004Z,55.41
2023-05-10T20:29:54.785Z,55.66
2023-05-10T20:33:05.621Z,55.98
2023-05-10T20:36:10.825Z,56.59
2023-05-10T20:39:16.004Z,55.94
2023-05-10T20:42:22.805Z,55.79
2023-05-10T20:45:35.390Z,55.60
2023-05-10T20:48:45.830Z,55.65
2023-05-10T20:51:53.998Z,55.97
2023-05-10T20:55:02.030Z,56.06
2023-05-10T20:58:08.433Z,56.18
2023-05-10T21:01:12.113Z,56.22
2023-05-10T21:04:22.584Z,56.41
2023-05-10T21:07:27.281Z,56.45
2023-05-10T21:10:34.464Z,56.58
2023-05-10T21:13:39.122Z,56.64
2023-05-10T21:16:42.077Z,57.00
2023-05-10T21:19:44.989Z,56.85
2023-05-10T21:22:48.886Z,56.98
2023-05-10T21:25:53.904Z,57.20
2023-05-10T21:28:56.702Z,57.37
2023-05-10T21:31:59.759Z,56.96
2023-05-10T21:35:04.303Z,56.94
2023-05-10T21:38:07.827Z,57.16
2023-05-10T21:41:12.007Z,57.32
2023-05-10T21:44:15.032Z,57.68
2023-05-10T21:47:17.498Z,57.91
2023-05-10T21:50:21.681Z,58.08
2023-05-10T21:53:24.233Z,58.37
2023-05-10T21:56:27.947Z,58.52
2023-05-10T21:59:33.740Z,58.83
2023-05-10T22:02:40.761Z,59.19
2023-05-10T22:05:44.128Z,59.53
2023-05-10T22:08:47.065Z,60.05
2023-05-10T22:11:50.387Z,59.53
2023-05-10T22:15:06.413Z,59.54
2023-05-10T22:18:12.006Z,58.97
2023-05-10T22:21:14.691Z,58.91
2023-05-10T22:24:17.596Z,58.83
2023-05-10T22:27:20.104Z,58.96
2023-05-10T22:30:33.387Z,58.88
2023-05-10T22:33:37.699Z,58.88
2023-05-10T22:36:40.738Z,58.88
2023-05-10T22:39:43.926Z,59.07
2023-05-10T22:42:46.601Z,59.40
2023-05-10T22:45:49.349Z,59.42
2023-05-10T22:48:53.187Z,59.67
2023-05-10T22:51:55.608Z,59.80
2023-05-10T22:54:58.333Z,59.83
2023-05-10T22:58:03.021Z,60.56
2023-05-10T23:01:05.768Z,59.96
2023-05-10T23:04:08.504Z,60.66
2023-05-10T23:07:11.810Z,60.68
2023-05-10T23:10:14.931Z,60.84
2023-05-10T23:13:18.832Z,60.72
2023-05-10T23:16:21.623Z,61.05
2023-05-10T23:19:24.687Z,61.11
2023-05-10T23:22:27.159Z,61.18
2023-05-10T23:25:30.102Z,61.24
2023-05-10T23:28:33.459Z,61.22
2023-05-10T23:31:37.304Z,61.25
2023-05-10T23:34:40.877Z,61.15
2023-05-10T23:37:44.250Z,62.04
2023-05-10T23:40:49.603Z,61.48
2023-05-10T23:43:52.371Z,61.47
2023-05-10T23:46:54.803Z,62.26
2023-05-10T23:49:57.517Z,62.55
2023-05-10T23:53:00.214Z,62.12
2023-05-10T23:56:03.275Z,62.65
2023-05-10T23:59:06.936Z,62.06
